sensor_id;sensor_type;location;lat;lon;timestamp;pressure;altitude;pressure_sealevel;temperature;humidity
61018;BME280;48171;51.550;5.434;2023-05-22T00:00:50;101491.59;;;15.48;100.00
61018;BME280;48171;51.550;5.434;2023-05-22T00:03:18;101494.34;;;15.44;100.00
61018;BME280;48171;51.550;5.434;2023-05-22T00:05:44;101489.06;;;15.40;100.00
61018;BME280;48171;51.550;5.434;2023-05-22T00:08:10;101493.50;;;15.42;100.00
61018;BME280;48171;51.550;5.434;2023-05-22T00:10:37;101497.88;;;15.44;100.00
61018;BME280;48171;51.550;5.434;2023-05-22T00:13:03;101489.91;;;15.44;100.00
61018;BME280;48171;51.550;5.434;2023-05-22T00:15:28;101493.50;;;15.42;100.00
61018;BME280;48171;51.550;5.434;2023-05-22T00:17:53;101491.75;;;15.39;100.00
61018;BME280;48171;51.550;5.434;2023-05-22T00:20:19;101492.75;;;15.33;100.00
61018;BME280;48171;51.550;5.434;2023-05-22T00:22:44;101494.50;;;15.33;100.00
61018;BME280;48171;51.550;5.434;2023-05-22T00:25:09;101497.25;;;15.30;100.00
61018;BME280;48171;51.550;5.434;2023-05-22T00:27:35;101488.44;;;15.25;100.00
61018;BME280;48171;51.550;5.434;2023-05-22T00:30:00;101485.81;;;15.23;100.00
61018;BME280;48171;51.550;5.434;2023-05-22T00:32:26;101482.31;;;15.19;100.00
61018;BME280;48171;51.550;5.434;2023-05-22T00:34:51;101479.59;;;15.23;100.00
61018;BME280;48171;51.550;5.434;2023-05-22T00:37:19;101473.47;;;15.17;100.00
61018;BME280;48171;51.550;5.434;2023-05-22T00:39:45;101484.09;;;15.19;100.00
61018;BME280;48171;51.550;5.434;2023-05-22T00:42:11;101488.53;;;15.18;100.00
61018;BME280;48171;51.550;5.434;2023-05-22T00:44:36;101482.34;;;15.18;100.00
61018;BME280;48171;51.550;5.434;2023-05-22T00:47:01;101476.16;;;15.16;100.00
61018;BME280;48171;51.550;5.434;2023-05-22T00:49:28;101481.56;;;15.11;100.00
61018;BME280;48171;51.550;5.434;2023-05-22T00:51:53;101463.88;;;15.07;100.00
61018;BME280;48171;51.550;5.434;2023-05-22T00:54:19;101465.72;;;15.02;100.00
61018;BME280;48171;51.550;5.434;2023-05-22T00:56:44;101474.56;;;15.04;100.00
61018;BME280;48171;51.550;5.434;2023-05-22T00:59:10;101479.84;;;15.07;100.00
61018;BME280;48171;51.550;5.434;2023-05-22T01:01:36;101478.91;;;15.10;100.00
61018;BME280;48171;51.550;5.434;2023-05-22T01:04:06;101484.13;;;15.17;100.00
61018;BME280;48171;51.550;5.434;2023-05-22T01:06:34;101472.75;;;15.06;100.00
61018;BME280;48171;51.550;5.434;2023-05-22T01:08:59;101476.38;;;15.02;100.00
61018;BME280;48171;51.550;5.434;2023-05-22T01:11:31;101480.81;;;15.03;100.00
61018;BME280;48171;51.550;5.434;2023-05-22T01:14:28;101475.50;;;15.00;100.00
61018;BME280;48171;51.550;5.434;2023-05-22T01:17:06;101476.38;;;15.00;100.00
61018;BME280;48171;51.550;5.434;2023-05-22T01:20:12;101468.50;;;14.94;100.00
61018;BME280;48171;51.550;5.434;2023-05-22T01:28:14;101465.91;;;14.90;100.00
61018;BME280;48171;51.550;5.434;2023-05-22T01:31:00;101471.25;;;14.88;100.00
61018;BME280;48171;51.550;5.434;2023-05-22T01:33:32;101470.47;;;14.80;100.00
61018;BME280;48171;51.550;5.434;2023-05-22T01:36:00;101476.72;;;14.79;100.00
61018;BME280;48171;51.550;5.434;2023-05-22T01:38:26;101465.22;;;14.75;100.00
61018;BME280;48171;51.550;5.434;2023-05-22T01:40:53;101471.44;;;14.74;100.00
61018;BME280;48171;51.550;5.434;2023-05-22T01:43:19;101466.25;;;14.67;100.00
61018;BME280;48171;51.550;5.434;2023-05-22T01:45:44;101457.44;;;14.63;100.00
61018;BME280;48171;51.550;5.434;2023-05-22T01:48:10;101459.25;;;14.58;100.00
61018;BME280;48171;51.550;5.434;2023-05-22T01:50:37;101467.25;;;14.58;100.00
61018;BME280;48171;51.550;5.434;2023-05-22T01:55:36;101459.38;;;14.47;100.00
61018;BME280;48171;51.550;5.434;2023-05-22T01:58:44;101469.09;;;14.50;100.00
61018;BME280;48171;51.550;5.434;2023-05-22T02:01:13;101468.28;;;14.45;100.00
61018;BME280;48171;51.550;5.434;2023-05-22T02:03:40;101464.72;;;14.46;100.00
61018;BME280;48171;51.550;5.434;2023-05-22T02:06:07;101465.63;;;14.43;100.00
61018;BME280;48171;51.550;5.434;2023-05-22T02:08:36;101457.69;;;14.40;100.00
61018;BME280;48171;51.550;5.434;2023-05-22T02:11:04;101459.47;;;14.41;100.00
61018;BME280;48171;51.550;5.434;2023-05-22T02:13:29;101458.59;;;14.40;100.00
61018;BME280;48171;51.550;5.434;2023-05-22T02:15:57;101466.56;;;14.40;100.00
61018;BME280;48171;51.550;5.434;2023-05-22T02:18:29;101463.94;;;14.39;100.00
61018;BME280;48171;51.550;5.434;2023-05-22T02:20:58;101465.72;;;14.38;100.00
61018;BME280;48171;51.550;5.434;2023-05-22T02:23:24;101458.69;;;14.33;100.00
61018;BME280;48171;51.550;5.434;2023-05-22T02:25:50;101453.34;;;14.34;100.00
61018;BME280;48171;51.550;5.434;2023-05-22T02:28:15;101452.44;;;14.35;100.00
61018;BME280;48171;51.550;5.434;2023-05-22T02:30:41;101451.50;;;14.41;100.00
61018;BME280;48171;51.550;5.434;2023-05-22T02:33:06;101455.88;;;14.44;100.00
61018;BME280;48171;51.550;5.434;2023-05-22T02:35:33;101450.56;;;14.42;100.00
61018;BME280;48171;51.550;5.434;2023-05-22T02:37:58;101436.41;;;14.40;100.00
61018;BME280;48171;51.550;5.434;2023-05-22T02:40:24;101440.84;;;14.41;100.00
61018;BME280;48171;51.550;5.434;2023-05-22T02:42:49;101445.25;;;14.42;100.00
61018;BME280;48171;51.550;5.434;2023-05-22T02:45:15;101453.22;;;14.42;100.00
61018;BME280;48171;51.550;5.434;2023-05-22T02:47:41;101440.84;;;14.41;100.00
61018;BME280;48171;51.550;5.434;2023-05-22T02:50:06;101449.69;;;14.43;100.00
61018;BME280;48171;51.550;5.434;2023-05-22T02:52:32;101437.25;;;14.44;100.00
61018;BME280;48171;51.550;5.434;2023-05-22T02:54:57;101437.31;;;14.40;100.00
61018;BME280;48171;51.550;5.434;2023-05-22T02:57:23;101433.81;;;14.38;100.00
61018;BME280;48171;51.550;5.434;2023-05-22T02:59:48;101438.28;;;14.35;100.00
61018;BME280;48171;51.550;5.434;2023-05-22T03:02:14;101441.81;;;14.34;100.00
61018;BME280;48171;51.550;5.434;2023-05-22T03:04:40;101435.69;;;14.29;100.00
61018;BME280;48171;51.550;5.434;2023-05-22T03:07:06;101438.38;;;14.26;100.00
61018;BME280;48171;51.550;5.434;2023-05-22T03:09:31;101441.09;;;14.24;100.00
61018;BME280;48171;51.550;5.434;2023-05-22T03:11:57;101434.91;;;14.20;100.00
61018;BME280;48171;51.550;5.434;2023-05-22T03:14:22;101433.19;;;14.18;100.00
61018;BME280;48171;51.550;5.434;2023-05-22T03:16:47;101422.66;;;14.10;100.00
61018;BME280;48171;51.550;5.434;2023-05-22T03:19:14;101427.97;;;14.10;100.00
61018;BME280;48171;51.550;5.434;2023-05-22T03:21:40;101423.59;;;14.06;100.00
61018;BME280;48171;51.550;5.434;2023-05-22T03:24:06;101424.56;;;13.97;100.00
61018;BME280;48171;51.550;5.434;2023-05-22T03:26:32;101427.25;;;13.96;100.00
61018;BME280;48171;51.550;5.434;2023-05-22T03:28:57;101428.13;;;13.95;100.00
61018;BME280;48171;51.550;5.434;2023-05-22T03:31:28;101416.72;;;13.88;100.00
61018;BME280;48171;51.550;5.434;2023-05-22T03:33:55;101420.31;;;13.84;100.00
61018;BME280;48171;51.550;5.434;2023-05-22T03:36:20;101426.53;;;13.80;100.00
61018;BME280;48171;51.550;5.434;2023-05-22T03:38:47;101432.81;;;13.73;100.00
61018;BME280;48171;51.550;5.434;2023-05-22T03:41:12;101438.97;;;13.73;100.00
61018;BME280;48171;51.550;5.434;2023-05-22T03:43:37;101431.94;;;13.69;100.00
61018;BME280;48171;51.550;5.434;2023-05-22T03:46:03;101435.47;;;13.71;100.00
61018;BME280;48171;51.550;5.434;2023-05-22T03:48:28;101436.38;;;13.69;100.00
61018;BME280;48171;51.550;5.434;2023-05-22T03:50:53;101428.44;;;13.67;100.00
61018;BME280;48171;51.550;5.434;2023-05-22T03:53:18;101415.22;;;13.63;100.00
61018;BME280;48171;51.550;5.434;2023-05-22T03:55:44;101421.38;;;13.66;100.00
61018;BME280;48171;51.550;5.434;2023-05-22T03:58:09;101429.34;;;13.68;100.00
61018;BME280;48171;51.550;5.434;2023-05-22T04:00:34;101418.72;;;13.66;100.00
61018;BME280;48171;51.550;5.434;2023-05-22T04:03:00;101419.63;;;13.64;100.00
61018;BME280;48171;51.550;5.434;2023-05-22T04:05:25;101414.34;;;13.60;100.00
61018;BME280;48171;51.550;5.434;2023-05-22T04:07:50;101414.34;;;13.59;100.00
61018;BME280;48171;51.550;5.434;2023-05-22T04:10:16;101420.59;;;13.56;100.00
61018;BME280;48171;51.550;5.434;2023-05-22T04:12:41;101417.88;;;13.61;100.00
61018;BME280;48171;51.550;5.434;2023-05-22T04:15:07;101422.38;;;13.54;100.00
61018;BME280;48171;51.550;5.434;2023-05-22T04:17:37;101425.94;;;13.52;100.00
61018;BME280;48171;51.550;5.434;2023-05-22T04:20:03;101437.44;;;13.52;100.00
61018;BME280;48171;51.550;5.434;2023-05-22T04:22:29;101425.09;;;13.48;100.00
61018;BME280;48171;51.550;5.434;2023-05-22T04:24:55;101424.22;;;13.46;100.00
61018;BME280;48171;51.550;5.434;2023-05-22T04:27:20;101435.69;;;13.51;100.00
61018;BME280;48171;51.550;5.434;2023-05-22T04:29:46;101436.56;;;13.52;100.00
61018;BME280;48171;51.550;5.434;2023-05-22T04:32:12;101449.78;;;13.55;100.00
61018;BME280;48171;51.550;5.434;2023-05-22T04:34:42;101441.03;;;13.48;100.00
61018;BME280;48171;51.550;5.434;2023-05-22T04:37:08;101445.41;;;13.51;100.00
61018;BME280;48171;51.550;5.434;2023-05-22T04:39:34;101440.09;;;13.52;100.00
61018;BME280;48171;51.550;5.434;2023-05-22T04:41:59;101450.66;;;13.57;100.00
61018;BME280;48171;51.550;5.434;2023-05-22T04:44:29;101456.75;;;13.68;100.00
61018;BME280;48171;51.550;5.434;2023-05-22T04:47:01;101457.69;;;13.61;100.00
61018;BME280;48171;51.550;5.434;2023-05-22T04:49:28;101456.78;;;13.65;100.00
61018;BME280;48171;51.550;5.434;2023-05-22T04:51:56;101458.56;;;13.65;100.00
61018;BME280;48171;51.550;5.434;2023-05-22T04:54:22;101459.41;;;13.67;100.00
61018;BME280;48171;51.550;5.434;2023-05-22T04:56:48;101457.69;;;13.64;100.00
61018;BME280;48171;51.550;5.434;2023-05-22T04:59:13;101465.66;;;13.64;100.00
61018;BME280;48171;51.550;5.434;2023-05-22T05:01:40;101453.28;;;13.62;100.00
61018;BME280;48171;51.550;5.434;2023-05-22T05:04:09;101454.22;;;13.57;100.00
61018;BME280;48171;51.550;5.434;2023-05-22T05:06:34;101457.75;;;13.59;100.00
61018;BME280;48171;51.550;5.434;2023-05-22T05:09:04;101469.22;;;13.60;100.00
61018;BME280;48171;51.550;5.434;2023-05-22T05:11:29;101471.88;;;13.62;100.00
61018;BME280;48171;51.550;5.434;2023-05-22T05:13:55;101472.72;;;13.65;100.00
61018;BME280;48171;51.550;5.434;2023-05-22T05:16:21;101474.47;;;13.68;100.00
61018;BME280;48171;51.550;5.434;2023-05-22T05:18:47;101470.91;;;13.67;100.00
61018;BME280;48171;51.550;5.434;2023-05-22T05:21:12;101476.28;;;13.66;100.00
61018;BME280;48171;51.550;5.434;2023-05-22T05:23:38;101480.59;;;13.73;100.00
61018;BME280;48171;51.550;5.434;2023-05-22T05:26:03;101477.91;;;13.77;100.00
61018;BME280;48171;51.550;5.434;2023-05-22T05:28:28;101477.88;;;13.84;100.00
61018;BME280;48171;51.550;5.434;2023-05-22T05:30:54;101484.91;;;13.88;100.00
61018;BME280;48171;51.550;5.434;2023-05-22T05:33:19;101478.69;;;13.89;100.00
61018;BME280;48171;51.550;5.434;2023-05-22T05:35:45;101474.25;;;13.89;100.00
61018;BME280;48171;51.550;5.434;2023-05-22T05:38:10;101473.31;;;13.93;100.00
61018;BME280;48171;51.550;5.434;2023-05-22T05:40:35;101474.16;;;13.98;100.00
61018;BME280;48171;51.550;5.434;2023-05-22T05:43:01;101476.81;;;14.00;100.00
61018;BME280;48171;51.550;5.434;2023-05-22T05:45:26;101477.66;;;14.00;100.00
61018;BME280;48171;51.550;5.434;2023-05-22T05:47:51;101477.63;;;14.04;100.00
61018;BME280;48171;51.550;5.434;2023-05-22T05:50:17;101469.63;;;14.07;100.00
61018;BME280;48171;51.550;5.434;2023-05-22T05:52:42;101474.88;;;14.14;100.00
61018;BME280;48171;51.550;5.434;2023-05-22T05:55:08;101470.41;;;14.18;100.00
61018;BME280;48171;51.550;5.434;2023-05-22T05:57:34;101475.63;;;14.24;100.00
61018;BME280;48171;51.550;5.434;2023-05-22T05:59:59;101481.75;;;14.32;100.00
61018;BME280;48171;51.550;5.434;2023-05-22T06:02:25;101484.34;;;14.37;100.00
61018;BME280;48171;51.550;5.434;2023-05-22T06:04:50;101489.66;;;14.37;100.00
61018;BME280;48171;51.550;5.434;2023-05-22T06:07:17;101487.84;;;14.39;100.00
61018;BME280;48171;51.550;5.434;2023-05-22T06:09:43;101488.69;;;14.43;100.00
61018;BME280;48171;51.550;5.434;2023-05-22T06:12:08;101485.97;;;14.46;100.00
61018;BME280;48171;51.550;5.434;2023-05-22T06:14:37;101494.72;;;14.55;100.00
61018;BME280;48171;51.550;5.434;2023-05-22T06:17:04;101492.88;;;14.64;100.00
61018;BME280;48171;51.550;5.434;2023-05-22T06:19:30;101493.66;;;14.70;100.00
61018;BME280;48171;51.550;5.434;2023-05-22T06:21:55;101502.50;;;14.72;100.00
61018;BME280;48171;51.550;5.434;2023-05-22T06:24:20;101496.28;;;14.73;100.00
61018;BME280;48171;51.550;5.434;2023-05-22T06:26:46;101498.09;;;14.71;100.00
61018;BME280;48171;51.550;5.434;2023-05-22T06:29:11;101499.91;;;14.69;100.00
61018;BME280;48171;51.550;5.434;2023-05-22T06:31:36;101497.22;;;14.71;100.00
61018;BME280;48171;51.550;5.434;2023-05-22T06:34:03;101508.63;;;14.79;100.00
61018;BME280;48171;51.550;5.434;2023-05-22T06:36:28;101500.56;;;14.87;100.00
61018;BME280;48171;51.550;5.434;2023-05-22T06:38:53;101505.69;;;14.99;100.00
61018;BME280;48171;51.550;5.434;2023-05-22T06:41:19;101504.69;;;15.08;100.00
61018;BME280;48171;51.550;5.434;2023-05-22T06:43:45;101507.31;;;15.09;100.00
61018;BME280;48171;51.550;5.434;2023-05-22T06:46:10;101513.50;;;15.10;100.00
61018;BME280;48171;51.550;5.434;2023-05-22T06:48:36;101514.34;;;15.15;100.00
61018;BME280;48171;51.550;5.434;2023-05-22T06:51:01;101516.16;;;15.11;100.00
61018;BME280;48171;51.550;5.434;2023-05-22T06:53:26;101517.88;;;15.14;100.00
61018;BME280;48171;51.550;5.434;2023-05-22T06:55:52;101521.47;;;15.13;100.00
61018;BME280;48171;51.550;5.434;2023-05-22T06:58:17;101523.31;;;15.08;100.00
61018;BME280;48171;51.550;5.434;2023-05-22T07:00:42;101532.19;;;15.07;100.00
61018;BME280;48171;51.550;5.434;2023-05-22T07:03:08;101524.31;;;14.99;100.00
61018;BME280;48171;51.550;5.434;2023-05-22T07:05:33;101534.03;;;15.02;100.00
61018;BME280;48171;51.550;5.434;2023-05-22T07:07:59;101530.47;;;15.03;100.00
61018;BME280;48171;51.550;5.434;2023-05-22T07:10:24;101532.19;;;15.07;100.00
61018;BME280;48171;51.550;5.434;2023-05-22T07:12:51;101526.75;;;15.14;100.00
61018;BME280;48171;51.550;5.434;2023-05-22T07:15:17;101538.16;;;15.23;100.00
61018;BME280;48171;51.550;5.434;2023-05-22T07:17:42;101528.41;;;15.23;100.00
61018;BME280;48171;51.550;5.434;2023-05-22T07:20:11;101538.91;;;15.32;100.00
61018;BME280;48171;51.550;5.434;2023-05-22T07:22:43;101527.38;;;15.33;100.00
61018;BME280;48171;51.550;5.434;2023-05-22T07:25:09;101542.28;;;15.45;100.00
61018;BME280;48171;51.550;5.434;2023-05-22T07:27:34;101540.41;;;15.50;100.00
61018;BME280;48171;51.550;5.434;2023-05-22T07:30:00;101542.09;;;15.54;100.00
61018;BME280;48171;51.550;5.434;2023-05-22T07:32:25;101542.91;;;15.59;100.00
61018;BME280;48171;51.550;5.434;2023-05-22T07:34:50;101543.72;;;15.63;100.00
61018;BME280;48171;51.550;5.434;2023-05-22T07:37:16;101548.16;;;15.66;100.00
61018;BME280;48171;51.550;5.434;2023-05-22T07:39:42;101543.69;;;15.66;100.00
61018;BME280;48171;51.550;5.434;2023-05-22T07:42:07;101553.34;;;15.75;100.00
61018;BME280;48171;51.550;5.434;2023-05-22T07:44:33;101540.91;;;15.75;100.00
61018;BME280;48171;51.550;5.434;2023-05-22T07:46:58;101545.94;;;15.91;100.00
61018;BME280;48171;51.550;5.434;2023-05-22T07:49:24;101544.16;;;15.91;100.00
61018;BME280;48171;51.550;5.434;2023-05-22T07:51:49;101555.66;;;15.95;100.00
61018;BME280;48171;51.550;5.434;2023-05-22T07:54:15;101562.69;;;15.97;100.00
61018;BME280;48171;51.550;5.434;2023-05-22T07:56:40;101557.34;;;16.00;100.00
61018;BME280;48171;51.550;5.434;2023-05-22T07:59:06;101561.72;;;16.03;100.00
61018;BME280;48171;51.550;5.434;2023-05-22T08:01:33;101567.91;;;16.04;100.00
61018;BME280;48171;51.550;5.434;2023-05-22T08:03:58;101566.09;;;16.07;100.00
61018;BME280;48171;51.550;5.434;2023-05-22T08:06:23;101558.03;;;16.12;100.00
61018;BME280;48171;51.550;5.434;2023-05-22T08:08:49;101560.56;;;16.18;100.00
61018;BME280;48171;51.550;5.434;2023-05-22T08:11:17;101557.69;;;16.29;100.00
61018;BME280;48171;51.550;5.434;2023-05-22T08:13:42;101562.84;;;16.38;100.00
61018;BME280;48171;51.550;5.434;2023-05-22T08:16:07;101556.56;;;16.42;100.00
61018;BME280;48171;51.550;5.434;2023-05-22T08:18:33;101551.13;;;16.47;100.00
61018;BME280;48171;51.550;5.434;2023-05-22T08:20:59;101558.91;;;16.57;100.00
61018;BME280;48171;51.550;5.434;2023-05-22T08:23:24;101551.63;;;16.64;100.00
61018;BME280;48171;51.550;5.434;2023-05-22T08:25:50;101553.13;;;16.79;100.00
61018;BME280;48171;51.550;5.434;2023-05-22T08:28:15;101546.63;;;16.92;100.00
61018;BME280;48171;51.550;5.434;2023-05-22T08:30:41;101547.31;;;17.00;100.00
61018;BME280;48171;51.550;5.434;2023-05-22T08:33:06;101544.41;;;17.13;100.00
61018;BME280;48171;51.550;5.434;2023-05-22T08:35:31;101553.97;;;17.23;100.00
61018;BME280;48171;51.550;5.434;2023-05-22T08:37:56;101548.63;;;17.23;100.00
61018;BME280;48171;51.550;5.434;2023-05-22T08:40:22;101540.78;;;17.15;100.00
61018;BME280;48171;51.550;5.434;2023-05-22T08:42:48;101550.22;;;17.30;100.00
61018;BME280;48171;51.550;5.434;2023-05-22T08:45:15;101552.50;;;17.47;100.00
61018;BME280;48171;51.550;5.434;2023-05-22T08:47:41;101554.06;;;17.56;100.00
61018;BME280;48171;51.550;5.434;2023-05-22T08:50:09;101553.94;;;17.60;100.00
61018;BME280;48171;51.550;5.434;2023-05-22T08:52:54;101545.78;;;17.65;100.00
61018;BME280;48171;51.550;5.434;2023-05-22T08:55:21;101545.78;;;17.65;100.00
61018;BME280;48171;51.550;5.434;2023-05-22T08:57:48;101547.41;;;17.72;100.00
61018;BME280;48171;51.550;5.434;2023-05-22T09:00:15;101534.75;;;17.79;100.00
61018;BME280;48171;51.550;5.434;2023-05-22T09:02:41;101535.28;;;17.93;100.00
61018;BME280;48171;51.550;5.434;2023-05-22T09:05:07;101542.88;;;18.10;100.00
61018;BME280;48171;51.550;5.434;2023-05-22T09:07:33;101539.78;;;18.26;100.00
61018;BME280;48171;51.550;5.434;2023-05-22T09:09:59;101528.69;;;18.39;100.00
61018;BME280;48171;51.550;5.434;2023-05-22T09:12:25;101538.91;;;18.56;100.00
61018;BME280;48171;51.550;5.434;2023-05-22T09:14:53;101538.63;;;18.66;100.00
61018;BME280;48171;51.550;5.434;2023-05-22T09:17:20;101544.47;;;18.80;100.00
61018;BME280;48171;51.550;5.434;2023-05-22T09:19:46;101546.06;;;18.87;100.00
61018;BME280;48171;51.550;5.434;2023-05-22T09:22:12;101546.78;;;18.92;100.00
61018;BME280;48171;51.550;5.434;2023-05-22T09:24:39;101553.94;;;18.92;99.42
61018;BME280;48171;51.550;5.434;2023-05-22T09:27:06;101543.97;;;18.97;100.00
61018;BME280;48171;51.550;5.434;2023-05-22T09:29:35;101547.53;;;18.97;100.00
61018;BME280;48171;51.550;5.434;2023-05-22T09:32:12;101547.59;;;18.94;100.00
61018;BME280;48171;51.550;5.434;2023-05-22T09:34:38;101536.41;;;18.82;100.00
61018;BME280;48171;51.550;5.434;2023-05-22T09:37:04;101534.75;;;18.76;99.85
61018;BME280;48171;51.550;5.434;2023-05-22T09:39:41;101537.75;;;18.65;100.00
61018;BME280;48171;51.550;5.434;2023-05-22T09:42:08;101533.69;;;18.52;100.00
61018;BME280;48171;51.550;5.434;2023-05-22T09:44:35;101529.34;;;18.48;100.00
61018;BME280;48171;51.550;5.434;2023-05-22T09:47:02;101536.88;;;18.65;100.00
61018;BME280;48171;51.550;5.434;2023-05-22T09:49:27;101534.72;;;18.77;99.89
61018;BME280;48171;51.550;5.434;2023-05-22T09:51:53;101527.34;;;18.86;99.35
61018;BME280;48171;51.550;5.434;2023-05-22T09:54:19;101531.53;;;18.94;98.63
61018;BME280;48171;51.550;5.434;2023-05-22T09:56:49;101524.16;;;19.03;100.00
61018;BME280;48171;51.550;5.434;2023-05-22T09:59:19;101528.44;;;19.08;100.00
61018;BME280;48171;51.550;5.434;2023-05-22T10:01:47;101516.00;;;19.07;100.00
61018;BME280;48171;51.550;5.434;2023-05-22T10:04:15;101530.09;;;19.12;100.00
61018;BME280;48171;51.550;5.434;2023-05-22T10:06:45;101521.03;;;19.16;97.68
61018;BME280;48171;51.550;5.434;2023-05-22T10:09:15;101525.25;;;19.25;99.18
61018;BME280;48171;51.550;5.434;2023-05-22T10:11:42;101532.84;;;19.39;100.00
61018;BME280;48171;51.550;5.434;2023-05-22T10:14:07;101527.16;;;19.48;95.95
61018;BME280;48171;51.550;5.434;2023-05-22T10:16:34;101521.53;;;19.56;94.22
61018;BME280;48171;51.550;5.434;2023-05-22T10:19:02;101536.34;;;19.68;99.23
61018;BME280;48171;51.550;5.434;2023-05-22T10:21:28;101528.25;;;19.69;98.83
61018;BME280;48171;51.550;5.434;2023-05-22T10:23:54;101517.56;;;19.68;95.53
61018;BME280;48171;51.550;5.434;2023-05-22T10:26:21;101532.50;;;19.76;92.44
61018;BME280;48171;51.550;5.434;2023-05-22T10:28:53;101525.47;;;19.72;96.39
61018;BME280;48171;51.550;5.434;2023-05-22T10:31:33;101522.41;;;19.56;94.26
61018;BME280;48171;51.550;5.434;2023-05-22T10:34:04;101524.31;;;19.53;97.71
61018;BME280;48171;51.550;5.434;2023-05-22T10:36:50;101531.84;;;19.68;98.68
61018;BME280;48171;51.550;5.434;2023-05-22T10:39:40;101522.50;;;19.82;98.32
61018;BME280;48171;51.550;5.434;2023-05-22T10:42:12;101517.88;;;19.85;94.23
61018;BME280;48171;51.550;5.434;2023-05-22T10:44:37;101517.78;;;19.88;93.35
61018;BME280;48171;51.550;5.434;2023-05-22T10:47:07;101517.56;;;19.94;95.95
61018;BME280;48171;51.550;5.434;2023-05-22T10:49:35;101509.72;;;20.13;97.05
61018;BME280;48171;51.550;5.434;2023-05-22T10:52:02;101516.69;;;20.19;94.06
61018;BME280;48171;51.550;5.434;2023-05-22T10:54:43;101514.88;;;20.19;94.44
61018;BME280;48171;51.550;5.434;2023-05-22T10:57:13;101514.94;;;20.18;96.30
61018;BME280;48171;51.550;5.434;2023-05-22T10:59:40;101511.50;;;20.14;95.03
61018;BME280;48171;51.550;5.434;2023-05-22T11:02:25;101509.03;;;20.08;92.82
61018;BME280;48171;51.550;5.434;2023-05-22T11:07:42;101510.28;;;20.23;95.66
61018;BME280;48171;51.550;5.434;2023-05-22T11:10:08;101511.84;;;20.29;91.78
61018;BME280;48171;51.550;5.434;2023-05-22T11:12:33;101505.25;;;20.37;90.44
61018;BME280;48171;51.550;5.434;2023-05-22T11:17:39;101496.50;;;20.56;91.58
61018;BME280;48171;51.550;5.434;2023-05-22T11:22:41;101496.78;;;20.73;89.11
61018;BME280;48171;51.550;5.434;2023-05-22T11:25:08;101492.16;;;20.77;90.90
61018;BME280;48171;51.550;5.434;2023-05-22T11:27:35;101502.63;;;20.85;93.36
61018;BME280;48171;51.550;5.434;2023-05-22T11:30:01;101488.19;;;20.87;92.73
61018;BME280;48171;51.550;5.434;2023-05-22T11:32:26;101482.91;;;20.84;90.48
61018;BME280;48171;51.550;5.434;2023-05-22T11:34:52;101489.06;;;20.88;88.43
61018;BME280;48171;51.550;5.434;2023-05-22T11:37:18;101492.25;;;20.97;88.24
61018;BME280;48171;51.550;5.434;2023-05-22T11:39:53;101497.44;;;21.02;89.41
61018;BME280;48171;51.550;5.434;2023-05-22T11:42:19;101498.19;;;21.06;90.33
61018;BME280;48171;51.550;5.434;2023-05-22T11:44:45;101492.25;;;21.20;85.13
61018;BME280;48171;51.550;5.434;2023-05-22T11:47:10;101506.47;;;21.45;89.36
61018;BME280;48171;51.550;5.434;2023-05-22T11:49:36;101493.38;;;21.58;87.90
61018;BME280;48171;51.550;5.434;2023-05-22T11:52:01;101488.75;;;21.62;87.97
61018;BME280;48171;51.550;5.434;2023-05-22T11:54:30;101487.50;;;21.69;83.89
61018;BME280;48171;51.550;5.434;2023-05-22T11:56:56;101482.56;;;21.80;82.87
61018;BME280;48171;51.550;5.434;2023-05-22T11:59:21;101480.41;;;21.88;81.39
61018;BME280;48171;51.550;5.434;2023-05-22T12:01:48;101483.03;;;21.90;87.07
61018;BME280;48171;51.550;5.434;2023-05-22T12:04:14;101483.69;;;21.95;86.24
61018;BME280;48171;51.550;5.434;2023-05-22T12:06:40;101478.25;;;21.96;80.94
61018;BME280;48171;51.550;5.434;2023-05-22T12:09:06;101477.97;;;22.03;82.66
61018;BME280;48171;51.550;5.434;2023-05-22T12:11:33;101469.81;;;22.25;88.33
61018;BME280;48171;51.550;5.434;2023-05-22T12:14:04;101474.88;;;22.32;80.34
61018;BME280;48171;51.550;5.434;2023-05-22T12:16:34;101478.06;;;22.41;82.67
61018;BME280;48171;51.550;5.434;2023-05-22T12:19:07;101478.81;;;22.44;83.49
61018;BME280;48171;51.550;5.434;2023-05-22T12:21:33;101471.31;;;22.32;81.11
61018;BME280;48171;51.550;5.434;2023-05-22T12:24:02;101469.84;;;22.23;81.00
61018;BME280;48171;51.550;5.434;2023-05-22T12:26:28;101476.81;;;22.29;78.27
61018;BME280;48171;51.550;5.434;2023-05-22T12:28:53;101487.53;;;22.30;83.13
61018;BME280;48171;51.550;5.434;2023-05-22T12:31:22;101476.25;;;22.21;79.76
61018;BME280;48171;51.550;5.434;2023-05-22T12:33:51;101470.56;;;22.28;78.27
61018;BME280;48171;51.550;5.434;2023-05-22T12:36:16;101480.91;;;22.37;81.38
61018;BME280;48171;51.550;5.434;2023-05-22T12:38:42;101482.78;;;22.35;82.18
61018;BME280;48171;51.550;5.434;2023-05-22T12:41:07;101471.56;;;22.26;80.96
61018;BME280;48171;51.550;5.434;2023-05-22T12:43:32;101475.00;;;22.29;79.85
61018;BME280;48171;51.550;5.434;2023-05-22T12:45:58;101473.84;;;22.35;78.11
61018;BME280;48171;51.550;5.434;2023-05-22T12:48:24;101469.47;;;22.32;82.45
61018;BME280;48171;51.550;5.434;2023-05-22T12:50:51;101475.94;;;22.28;81.21
61018;BME280;48171;51.550;5.434;2023-05-22T12:53:17;101467.13;;;22.25;78.12
61018;BME280;48171;51.550;5.434;2023-05-22T12:55:42;101465.47;;;22.41;78.46
61018;BME280;48171;51.550;5.434;2023-05-22T12:58:07;101462.06;;;22.56;77.49